Terminal Aerodrome Forecast
Issued by NWS

Home | Current Version | Previous Version | Text Only | Print | Product List | Glossary On
Versions: 1 2 3 4 5 6 7 8 9 10 11 12 13 14 15 16 17 18 19 20
391
FTUS43 KPAH 091138
TAFCGI
TAF
KCGI 091138Z 0912/1012 33012KT P6SM -SN SCT025 BKN035
      TEMPO 0912/0915 2SM -SN BR BKN015 OVC035
     FM100200 31010KT P6SM SCT035=

USA.gov is the U.S. government's official web portal to all federal, state and local government web resources and services.